Junction City, Washington
Current Conditions -  °F | °C
As of 2:53 PM on Wednesday 17 Dec 2014 (Local Time) from KHQM Reporting Station
Light Rain Light Rain  
Wind Chill: 45°   Ceiling: 4800
Heat Index: 47°   Visibility: 5mi
Dew Point: 46°   Wind: 5mph
Humidity: 97%   Direction: 70°ENE
Pressure: 29.83"   Gusts: NA
Location:  47.1445°N, 123.771°W
Report Text: KHQM 172253Z AUTO 07004KT 5SM -RA BR OVC048 08/08 A2983 RMK AO2 RAB2157E07B50 SLP103 P0000 T00830078
Loading
Personal Weather Stations






























Interactive Weather Map New forecast layout! Learn more

10-Day Weather Forecast

Advertisements
Track Severe Weather on mobile